New Salem, Illinois
Current Conditions -  °F | °C
As of 2:55 PM on Tuesday 27 Jan 2015 (Local Time) from KPPQ Reporting Station
Overcast Overcast  
Wind Chill: 35°   Ceiling: 2800
Heat Index: 40°   Visibility: 10mi
Dew Point: 32°   Wind: 8mph
Humidity: 72%   Direction: 360°N
Pressure: 30.18"   Gusts: NA
Location:  39.71°N, 90.85°W
Report Text: KPPQ 272055Z AUTO 36007KT 10SM OVC028 05/00 A3018 RMK AO2 T00470000
Loading
Personal Weather Stations






























Interactive Weather Map New forecast layout! Learn more

10-Day Weather Forecast

Advertisements
Track Severe Weather on mobile